TimeMST,TemperatureF,Dew PointF,Humidity,Sea Level PressureIn,VisibilityMPH,Wind Direction,Wind SpeedMPH,Gust SpeedMPH,PrecipitationIn,Events,Conditions,WindDirDegrees,DateUTC
12:13 AM,36.5,21.6,55,29.92,10.0,North,5.8,-,N/A,,Clear,350,2013-03-07 07:13:00
12:33 AM,34.3,20.7,57,29.92,10.0,NNE,5.8,-,N/A,,Clear,30,2013-03-07 07:33:00
12:53 AM,36.9,19.6,50,29.92,10.0,NE,3.5,-,N/A,,Clear,40,2013-03-07 07:53:00
1:13 AM,43.3,12.9,29,29.93,10.0,North,6.9,-,N/A,,Clear,350,2013-03-07 08:13:00
1:33 AM,37.9,14.7,39,29.93,10.0,NNW,4.6,-,N/A,,Clear,330,2013-03-07 08:33:00
1:53 AM,36.9,14.4,40,29.92,10.0,NNW,5.8,-,N/A,,Clear,340,2013-03-07 08:53:00
2:13 AM,39.4,11.8,32,29.91,10.0,North,9.2,-,N/A,,Clear,360,2013-03-07 09:13:00
2:33 AM,42.1,12.2,30,29.91,10.0,NE,8.1,-,N/A,,Clear,40,2013-03-07 09:33:00
2:53 AM,41.4,11.1,29,29.91,10.0,NE,5.8,-,N/A,,Clear,40,2013-03-07 09:53:00
3:13 AM,39.0,10.9,32,29.91,10.0,NE,4.6,-,N/A,,Clear,40,2013-03-07 10:13:00
3:33 AM,40.1,11.5,31,29.91,10.0,NNW,4.6,-,N/A,,Clear,340,2013-03-07 10:33:00
3:53 AM,36.9,12.0,36,29.91,10.0,NW,4.6,-,N/A,,Clear,320,2013-03-07 10:53:00
4:13 AM,35.4,14.5,42,29.91,10.0,WNW,6.9,-,N/A,,Clear,300,2013-03-07 11:13:00
4:33 AM,32.9,14.4,47,29.92,10.0,WNW,4.6,-,N/A,,Clear,290,2013-03-07 11:33:00
4:53 AM,32.7,14.5,47,29.93,10.0,WSW,4.6,-,N/A,,Clear,250,2013-03-07 11:53:00
5:13 AM,33.6,13.1,43,29.94,10.0,West,6.9,-,N/A,,Clear,270,2013-03-07 12:13:00
5:33 AM,34.5,13.5,42,29.94,10.0,WNW,5.8,-,N/A,,Clear,300,2013-03-07 12:33:00
5:53 AM,30.4,16.0,55,29.95,10.0,WNW,5.8,-,N/A,,Clear,290,2013-03-07 12:53:00
6:13 AM,29.3,17.1,60,29.95,10.0,Calm,Calm,-,N/A,,Clear,0,2013-03-07 13:13:00
6:33 AM,29.8,17.1,59,29.97,10.0,NW,4.6,-,N/A,,Clear,310,2013-03-07 13:33:00
6:53 AM,30.6,17.2,58,29.97,10.0,NW,9.2,-,N/A,,Clear,320,2013-03-07 13:53:00
7:13 AM,33.4,15.8,48,29.98,10.0,NW,6.9,-,N/A,,Clear,310,2013-03-07 14:13:00
7:33 AM,35.1,18.3,51,29.99,10.0,WNW,6.9,-,N/A,,Clear,300,2013-03-07 14:33:00
7:53 AM,38.3,23.2,55,30.00,10.0,West,11.5,-,N/A,,Clear,280,2013-03-07 14:53:00
8:13 AM,41.4,23.0,48,30.01,10.0,West,8.1,-,N/A,,Clear,280,2013-03-07 15:13:00
8:33 AM,45.0,19.6,36,30.01,10.0,West,5.8,-,N/A,,Clear,270,2013-03-07 15:33:00
8:53 AM,49.1,18.0,29,30.02,10.0,West,4.6,-,N/A,,Clear,270,2013-03-07 15:53:00
9:13 AM,50.9,15.6,25,30.02,10.0,West,12.7,-,N/A,,Clear,280,2013-03-07 16:13:00
9:33 AM,52.3,12.4,20,30.02,10.0,WSW,3.5,-,N/A,,Clear,250,2013-03-07 16:33:00
9:53 AM,53.8,10.9,18,30.02,10.0,West,6.9,-,N/A,,Clear,270,2013-03-07 16:53:00
10:13 AM,54.5,7.5,15,30.02,10.0,Calm,Calm,-,N/A,,Clear,0,2013-03-07 17:13:00
10:33 AM,55.6,6.8,14,30.02,10.0,West,8.1,-,N/A,,Clear,280,2013-03-07 17:33:00
10:53 AM,56.3,7.7,14,30.02,10.0,West,6.9,-,N/A,,Clear,280,2013-03-07 17:53:00
11:13 AM,57.6,6.6,13,30.02,10.0,WSW,4.6,-,N/A,,Clear,240,2013-03-07 18:13:00
11:33 AM,57.9,7.2,13,30.02,10.0,SSE,12.7,18.4,N/A,,Clear,160,2013-03-07 18:33:00
11:53 AM,56.3,15.8,20,30.02,10.0,South,12.7,23.0,N/A,,Clear,170,2013-03-07 18:53:00
12:13 PM,57.6,10.4,15,30.02,10.0,South,11.5,20.7,N/A,,Clear,180,2013-03-07 19:13:00
12:33 PM,58.8,10.2,15,30.01,10.0,South,11.5,24.2,N/A,,Clear,180,2013-03-07 19:33:00
12:53 PM,58.5,10.4,15,30.00,10.0,South,10.4,18.4,N/A,,Clear,170,2013-03-07 19:53:00
1:13 PM,59.2,10.4,15,29.99,10.0,South,12.7,19.6,N/A,,Clear,170,2013-03-07 20:13:00
1:33 PM,59.0,9.0,14,29.98,10.0,South,12.7,19.6,N/A,,Clear,180,2013-03-07 20:33:00
1:53 PM,58.6,10.2,15,29.98,10.0,South,15.0,21.9,N/A,,Clear,170,2013-03-07 20:53:00
2:05 PM,59.2,11.1,15,29.97,10.0,South,12.7,21.9,N/A,,Clear,170,2013-03-07 21:05:00
2:47 PM,60.4,10.6,14,29.96,10.0,SSE,12.7,23.0,N/A,,Clear,150,2013-03-07 21:47:00
3:06 PM,59.7,10.6,14,29.96,10.0,SE,13.8,20.7,N/A,,Clear,140,2013-03-07 22:06:00
3:26 PM,60.3,10.4,14,29.96,10.0,SE,18.4,24.2,N/A,,Clear,140,2013-03-07 22:26:00
3:44 PM,58.6,9.0,14,29.96,10.0,SSE,12.7,29.9,N/A,,Clear,150,2013-03-07 22:44:00
4:04 PM,57.4,9.5,15,29.96,10.0,SE,13.8,18.4,N/A,,Clear,130,2013-03-07 23:04:00
4:33 PM,54.1,7.7,16,29.95,10.0,ESE,10.4,17.3,N/A,,Clear,120,2013-03-07 23:33:00
4:53 PM,58.1,9.7,15,29.94,10.0,SSE,12.7,17.3,N/A,,Clear,150,2013-03-07 23:53:00
6:33 PM,44.2,11.8,27,29.97,10.0,South,11.5,-,N/A,,Clear,180,2013-03-08 01:33:00
6:53 PM,43.0,11.3,28,29.97,10.0,South,9.2,-,N/A,,Clear,190,2013-03-08 01:53:00
7:13 PM,44.6,9.7,24,29.98,10.0,SSW,10.4,-,N/A,,Clear,200,2013-03-08 02:13:00
7:33 PM,43.7,10.6,26,29.99,10.0,ESE,9.2,17.3,N/A,,Clear,110,2013-03-08 02:33:00
7:53 PM,43.9,8.6,24,29.99,10.0,East,9.2,-,N/A,,Clear,90,2013-03-08 02:53:00
8:13 PM,44.6,8.8,23,29.99,10.0,ESE,6.9,-,N/A,,Clear,120,2013-03-08 03:13:00
8:33 PM,42.6,11.7,28,29.99,10.0,WNW,3.5,-,N/A,,Clear,290,2013-03-08 03:33:00
8:53 PM,43.9,9.3,24,30.00,10.0,East,10.4,-,N/A,,Clear,100,2013-03-08 03:53:00
9:13 PM,38.5,17.8,43,30.01,10.0,East,10.4,19.6,N/A,,Clear,100,2013-03-08 04:13:00
9:33 PM,37.6,23.0,56,30.01,10.0,South,5.8,-,N/A,,Clear,170,2013-03-08 04:33:00
9:53 PM,37.0,23.7,59,30.01,10.0,South,5.8,-,N/A,,Clear,180,2013-03-08 04:53:00
10:13 PM,37.6,24.3,59,30.01,10.0,South,4.6,-,N/A,,Clear,170,2013-03-08 05:13:00
10:33 PM,36.9,24.4,61,30.00,10.0,North,3.5,-,N/A,,Clear,360,2013-03-08 05:33:00
11:13 PM,35.1,25.0,67,30.00,10.0,North,5.8,-,N/A,,Clear,360,2013-03-08 06:13:00
11:33 PM,33.3,24.6,71,30.00,10.0,North,5.8,-,N/A,,Clear,350,2013-03-08 06:33:00
11:53 PM,32.2,24.6,74,29.99,10.0,NNW,5.8,-,N/A,,Clear,340,2013-03-08 06:53:00